createdAt,value
2019-02-24T00:02:15.921Z,102011.59
2019-02-24T00:05:02.321Z,102008.22
2019-02-24T00:07:48.665Z,102003.03
2019-02-24T00:10:35.042Z,102002.22
2019-02-24T00:13:02.567Z,102010.59
2019-02-24T00:15:49.019Z,102011.48
2019-02-24T00:18:16.781Z,102011.96
2019-02-24T00:21:15.474Z,102008.03
2019-02-24T00:23:32.380Z,102008.03
2019-02-24T00:26:18.680Z,101996.18
2019-02-24T00:28:46.350Z,101999.23
2019-02-24T00:31:33.491Z,101997.00
2019-02-24T00:34:19.884Z,102003.53
2019-02-24T00:36:47.398Z,102003.53
2019-02-24T00:39:33.784Z,102002.22
2019-02-24T00:42:20.163Z,102006.56
2019-02-24T00:45:06.625Z,102006.56
2019-02-24T00:50:24.772Z,102002.55
2019-02-24T00:52:52.309Z,102003.45
2019-02-24T00:55:19.892Z,102003.45
2019-02-24T00:57:47.418Z,102006.48
2019-02-24T01:00:15.083Z,102002.91
2019-02-24T01:05:29.288Z,102000.32
2019-02-24T01:07:56.899Z,102002.05
2019-02-24T01:13:12.631Z,101999.91
2019-02-24T01:15:40.117Z,101995.56
2019-02-24T01:18:07.724Z,101995.56
2019-02-24T01:20:54.316Z,101993.83
2019-02-24T01:23:40.681Z,102004.00
2019-02-24T01:26:27.107Z,102002.70
2019-02-24T01:31:31.322Z,101994.94
2019-02-24T01:33:59.320Z,101992.87
2019-02-24T01:36:27.187Z,101992.87
2019-02-24T01:38:54.798Z,101992.61
2019-02-24T01:41:22.553Z,101992.20
2019-02-24T01:43:50.225Z,101987.05
2019-02-24T01:46:36.520Z,101991.36
2019-02-24T01:49:04.107Z,101997.03
2019-02-24T01:51:52.829Z,101988.72
2019-02-24T01:54:20.408Z,101990.44
2019-02-24T01:56:47.965Z,101990.44
2019-02-24T01:59:15.617Z,101987.67
2019-02-24T02:02:01.939Z,101988.88
2019-02-24T02:04:48.503Z,101982.65
2019-02-24T02:07:16.117Z,101984.79
2019-02-24T02:10:02.753Z,101977.80
2019-02-24T02:12:49.101Z,101972.04
2019-02-24T02:15:35.799Z,101968.03
2019-02-24T02:18:22.158Z,101975.78
2019-02-24T02:21:08.572Z,101970.84
2019-02-24T02:23:36.027Z,101958.60
2019-02-24T02:26:03.617Z,101958.60
2019-02-24T02:28:31.146Z,101962.34
2019-02-24T02:31:17.486Z,101960.71
2019-02-24T02:33:45.450Z,101961.27
2019-02-24T02:36:13.396Z,101961.27
2019-02-24T02:38:59.788Z,101957.06
2019-02-24T02:41:27.370Z,101957.06
2019-02-24T02:44:13.968Z,101951.94
2019-02-24T02:46:41.535Z,101951.94
2019-02-24T02:49:28.142Z,101944.61
2019-02-24T02:51:55.719Z,101946.40
2019-02-24T02:54:42.421Z,101943.35
2019-02-24T02:57:28.773Z,101945.94
2019-02-24T03:00:15.398Z,101945.50
2019-02-24T03:03:01.738Z,101939.83
2019-02-24T03:05:29.501Z,101939.83
2019-02-24T03:08:03.490Z,101949.09
2019-02-24T03:10:50.106Z,101944.73
2019-02-24T03:13:17.764Z,101944.34
2019-02-24T03:15:45.519Z,101943.50
2019-02-24T03:18:13.182Z,101944.39
2019-02-24T03:20:59.530Z,101957.95
2019-02-24T03:23:27.068Z,101957.95
2019-02-24T03:26:13.667Z,101967.20
2019-02-24T03:28:41.306Z,101967.20
2019-02-24T03:31:08.874Z,101972.94
2019-02-24T03:33:58.146Z,101962.89
2019-02-24T03:36:25.705Z,101969.04
2019-02-24T03:38:53.395Z,101972.09
2019-02-24T03:41:21.033Z,101980.02
2019-02-24T03:44:07.418Z,101983.53
2019-02-24T03:46:34.989Z,101982.23
2019-02-24T03:49:21.416Z,101980.45
2019-02-24T03:51:49.346Z,101980.45
2019-02-24T03:54:16.906Z,101980.44
2019-02-24T03:57:03.320Z,101984.85
2019-02-24T03:59:30.978Z,101984.85
2019-02-24T04:01:58.527Z,101991.36
2019-02-24T04:04:45.131Z,101989.63
2019-02-24T04:07:12.668Z,101984.81
2019-02-24T04:09:40.189Z,101988.33
2019-02-24T04:12:26.792Z,101978.31
2019-02-24T04:14:54.417Z,101978.31
2019-02-24T04:17:22.026Z,101985.81
2019-02-24T04:19:49.592Z,101985.81
2019-02-24T04:22:35.948Z,101981.47
2019-02-24T04:25:03.611Z,101989.80
2019-02-24T04:27:31.377Z,101989.80
2019-02-24T04:29:59.034Z,101989.38
2019-02-24T04:32:47.841Z,101983.73
2019-02-24T04:35:17.086Z,101981.09
2019-02-24T04:37:44.769Z,101981.09
2019-02-24T04:40:33.061Z,101982.77
2019-02-24T04:43:00.658Z,101982.77
2019-02-24T04:45:28.322Z,101988.02
2019-02-24T04:47:55.890Z,101996.83
2019-02-24T04:50:42.279Z,102000.36
2019-02-24T04:53:09.855Z,102009.55
2019-02-24T04:55:56.548Z,102009.55
2019-02-24T04:58:24.161Z,102002.10
2019-02-24T05:01:10.772Z,102005.14
2019-02-24T05:03:38.672Z,102009.07
2019-02-24T05:06:25.293Z,102009.08
2019-02-24T05:09:12.101Z,102007.39
2019-02-24T05:11:39.763Z,102007.39
2019-02-24T05:14:07.435Z,102011.86
2019-02-24T05:16:35.083Z,102011.86
2019-02-24T05:19:02.748Z,102019.03
2019-02-24T05:21:30.407Z,102019.96
2019-02-24T05:23:57.990Z,102021.32
2019-02-24T05:26:44.292Z,102015.30
2019-02-24T05:29:11.890Z,102015.30
2019-02-24T05:31:58.539Z,102006.59
2019-02-24T05:37:00.294Z,102003.13
2019-02-24T05:39:46.822Z,102009.72
2019-02-24T05:42:14.363Z,102009.72
2019-02-24T05:44:42.141Z,102009.68
2019-02-24T05:47:09.690Z,102005.75
2019-02-24T05:49:56.119Z,102005.75
2019-02-24T05:52:42.840Z,102005.67
2019-02-24T05:55:10.556Z,102005.67
2019-02-24T05:57:57.180Z,102002.11
2019-02-24T06:00:24.759Z,102002.11
2019-02-24T06:02:52.698Z,102008.16
2019-02-24T06:05:39.068Z,102014.67
2019-02-24T06:08:09.346Z,102013.35
2019-02-24T06:10:55.656Z,102020.77
2019-02-24T06:13:23.583Z,102020.77
2019-02-24T06:15:51.117Z,102013.27
2019-02-24T06:18:37.516Z,102014.25
2019-02-24T06:21:23.813Z,102008.66
2019-02-24T06:23:51.503Z,102010.91
2019-02-24T06:26:37.771Z,102010.91
2019-02-24T06:29:05.292Z,102014.45
2019-02-24T06:31:51.728Z,102021.48
2019-02-24T06:34:38.122Z,102014.97
2019-02-24T06:37:05.627Z,102011.45
2019-02-24T06:39:52.019Z,102014.92
2019-02-24T06:42:19.688Z,102014.92
2019-02-24T06:45:06.421Z,102014.46
2019-02-24T06:47:52.853Z,102019.20
2019-02-24T06:50:20.740Z,102017.05
2019-02-24T06:53:07.364Z,102020.89
2019-02-24T06:55:53.644Z,102023.89
2019-02-24T06:58:21.339Z,102020.77
2019-02-24T07:00:49.166Z,102020.77
2019-02-24T07:03:16.860Z,102021.98
2019-02-24T07:06:03.244Z,102017.52
2019-02-24T07:08:49.936Z,102011.70
2019-02-24T07:11:17.485Z,102011.59
2019-02-24T07:13:45.107Z,102011.59
2019-02-24T07:16:12.711Z,102018.53
2019-02-24T07:18:59.073Z,102010.53
2019-02-24T07:21:45.804Z,102009.16
2019-02-24T07:24:15.154Z,102009.16
2019-02-24T07:27:01.489Z,102007.71
2019-02-24T07:29:28.955Z,102012.86
2019-02-24T07:32:15.386Z,102018.88
2019-02-24T07:37:42.803Z,102021.02
2019-02-24T07:40:00.725Z,102019.16
2019-02-24T07:42:47.144Z,102005.48
2019-02-24T07:45:14.756Z,102005.48
2019-02-24T07:48:01.148Z,101999.91
2019-02-24T07:53:33.912Z,102002.60
2019-02-24T07:56:01.526Z,102002.60
2019-02-24T07:58:47.962Z,101994.77
2019-02-24T08:01:16.018Z,101994.77
2019-02-24T08:04:02.384Z,102001.98
2019-02-24T08:06:30.022Z,102000.24
2019-02-24T08:09:16.290Z,101996.53
2019-02-24T08:11:43.953Z,101996.53
2019-02-24T08:14:11.607Z,102012.48
2019-02-24T08:16:58.039Z,102015.42
2019-02-24T08:19:25.665Z,102015.42
2019-02-24T08:21:53.333Z,102008.44
2019-02-24T08:24:22.767Z,102008.44
2019-02-24T08:29:43.226Z,102011.81
2019-02-24T08:32:10.862Z,102011.81
2019-02-24T08:34:57.193Z,102023.34
2019-02-24T08:37:43.633Z,102031.13
2019-02-24T08:40:11.431Z,102027.62
2019-02-24T08:45:12.121Z,102034.86
2019-02-24T08:47:39.931Z,102040.20
2019-02-24T08:50:07.457Z,102040.34
2019-02-24T08:52:53.787Z,102042.70
2019-02-24T08:55:21.310Z,102042.70
2019-02-24T08:57:49.149Z,102037.48
2019-02-24T09:03:21.953Z,102046.66
2019-02-24T09:05:49.396Z,102056.64
2019-02-24T09:08:35.772Z,102056.64
2019-02-24T09:11:03.497Z,102053.83
2019-02-24T09:13:31.349Z,102045.99
2019-02-24T09:16:32.075Z,102047.58
2019-02-24T09:19:08.088Z,102048.88
2019-02-24T09:21:38.186Z,102048.88
2019-02-24T09:27:10.935Z,102054.81
2019-02-24T09:29:38.533Z,102057.34
2019-02-24T09:32:07.932Z,102059.77
2019-02-24T09:34:37.060Z,102059.44
2019-02-24T09:42:18.071Z,102057.77
2019-02-24T09:45:04.413Z,102063.03
2019-02-24T09:47:32.090Z,102060.37
2019-02-24T09:50:00.254Z,102060.37
2019-02-24T09:52:27.834Z,102058.89
2019-02-24T09:54:55.487Z,102062.28
2019-02-24T09:57:41.819Z,102063.28
2019-02-24T10:03:16.133Z,102063.34
2019-02-24T10:05:45.372Z,102063.34
2019-02-24T10:08:13.179Z,102062.73
2019-02-24T10:10:43.698Z,102063.69
2019-02-24T10:13:11.376Z,102069.50
2019-02-24T10:15:39.193Z,102056.91
2019-02-24T10:18:06.713Z,102050.17
2019-02-24T10:23:16.162Z,102040.07
2019-02-24T10:25:43.707Z,102040.38
2019-02-24T10:28:11.282Z,102046.28
2019-02-24T10:31:01.578Z,102046.28
2019-02-24T10:36:36.027Z,102043.92
2019-02-24T10:39:03.890Z,102043.92
2019-02-24T10:41:31.638Z,102047.16
2019-02-24T10:49:57.642Z,102040.86
2019-02-24T10:52:44.082Z,102044.22
2019-02-24T10:55:31.385Z,102027.63
2019-02-24T10:57:58.983Z,102027.63
2019-02-24T11:00:45.258Z,102032.73
2019-02-24T11:03:12.793Z,102033.67
2019-02-24T11:05:59.154Z,102027.58
2019-02-24T11:08:29.778Z,102027.86
2019-02-24T11:11:16.076Z,102021.64
2019-02-24T11:13:49.771Z,102018.72
2019-02-24T11:16:19.240Z,102010.66
2019-02-24T11:18:46.799Z,101999.80
2019-02-24T11:21:14.388Z,101999.80
2019-02-24T11:23:42.261Z,101999.60
2019-02-24T11:26:09.882Z,102005.41
2019-02-24T11:28:37.482Z,102010.94
2019-02-24T11:31:09.738Z,102010.94
2019-02-24T11:33:37.339Z,102005.23
2019-02-24T11:36:05.027Z,102005.23
2019-02-24T11:38:32.818Z,102000.33
2019-02-24T11:41:00.406Z,101998.16
2019-02-24T11:43:28.348Z,101996.41
2019-02-24T11:45:56.485Z,101999.59
2019-02-24T11:48:25.847Z,101999.50
2019-02-24T11:50:53.425Z,101995.81
2019-02-24T11:53:21.138Z,101995.81
2019-02-24T11:55:48.727Z,101996.53
2019-02-24T11:58:16.281Z,101999.67
2019-02-24T12:00:44.230Z,102002.45
2019-02-24T12:03:13.747Z,101996.06
2019-02-24T12:05:44.011Z,101993.78
2019-02-24T12:08:11.720Z,102000.06
2019-02-24T12:10:39.261Z,102003.90
2019-02-24T12:13:09.121Z,101995.02
2019-02-24T12:15:37.072Z,101995.02
2019-02-24T12:18:04.635Z,101994.06
2019-02-24T12:20:32.124Z,101994.06
2019-02-24T12:23:02.199Z,101989.09
2019-02-24T12:25:29.694Z,101984.16
2019-02-24T12:27:57.212Z,101984.16
2019-02-24T12:30:25.078Z,101994.15
2019-02-24T12:32:52.686Z,101993.75
2019-02-24T12:35:20.253Z,101993.75
2019-02-24T12:37:48.146Z,101991.08
2019-02-24T12:40:15.717Z,101984.68
2019-02-24T12:42:43.227Z,101976.00
2019-02-24T12:45:12.039Z,101976.00
2019-02-24T12:47:40.027Z,101981.51
2019-02-24T12:50:10.161Z,101973.82
2019-02-24T12:52:38.051Z,101977.70
2019-02-24T12:55:05.658Z,101975.59
2019-02-24T12:57:33.234Z,101973.59
2019-02-24T13:00:03.297Z,101974.47
2019-02-24T13:02:30.880Z,101974.48
2019-02-24T13:04:58.474Z,101968.67
2019-02-24T13:07:28.806Z,101968.67
2019-02-24T13:09:56.477Z,101968.34
2019-02-24T13:12:23.961Z,101968.34
2019-02-24T13:14:52.031Z,101969.63
2019-02-24T13:17:19.544Z,101969.63
2019-02-24T13:19:48.898Z,101962.23
2019-02-24T13:22:16.659Z,101962.23
2019-02-24T13:24:44.607Z,101961.27
2019-02-24T13:27:12.420Z,101961.42
2019-02-24T13:29:40.193Z,101961.45
2019-02-24T13:32:14.698Z,101965.24
2019-02-24T13:34:36.928Z,101966.34
2019-02-24T13:37:09.398Z,101966.77
2019-02-24T13:39:40.373Z,101965.81
2019-02-24T13:42:12.404Z,101965.81
2019-02-24T13:44:40.252Z,101962.45
2019-02-24T13:47:07.846Z,101962.45
2019-02-24T13:49:36.769Z,101960.13
2019-02-24T13:52:04.782Z,101960.41
2019-02-24T13:54:32.251Z,101955.27
2019-02-24T13:57:01.922Z,101952.08
2019-02-24T13:59:32.658Z,101952.08
2019-02-24T14:02:01.973Z,101950.59
2019-02-24T14:04:29.627Z,101949.84
2019-02-24T14:07:16.213Z,101940.92
2019-02-24T14:09:59.039Z,101940.39
2019-02-24T14:12:14.263Z,101938.86
2019-02-24T14:14:49.102Z,101936.97
2019-02-24T14:17:15.195Z,101942.09
2019-02-24T14:19:45.187Z,101938.27
2019-02-24T14:22:33.186Z,101936.73
2019-02-24T14:25:02.549Z,101936.73
2019-02-24T14:27:48.901Z,101935.52
2019-02-24T14:33:11.351Z,101927.02
2019-02-24T14:35:57.939Z,101926.44
2019-02-24T14:38:44.302Z,101926.44
2019-02-24T14:41:14.912Z,101935.91
2019-02-24T14:44:01.280Z,101935.20
2019-02-24T14:46:28.802Z,101939.72
2019-02-24T14:48:56.388Z,101934.16
2019-02-24T14:51:42.698Z,101931.86
2019-02-24T14:54:22.295Z,101931.86
2019-02-24T14:56:42.042Z,101945.03
2019-02-24T14:59:28.403Z,101943.73
2019-02-24T15:01:56.025Z,101943.73
2019-02-24T15:04:23.751Z,101949.09
2019-02-24T15:06:51.357Z,101950.32
2019-02-24T15:09:18.922Z,101949.43
2019-02-24T15:11:46.715Z,101948.66
2019-02-24T15:14:16.690Z,101955.27
2019-02-24T15:16:47.256Z,101951.89
2019-02-24T15:19:15.089Z,101957.31
2019-02-24T15:21:42.713Z,101957.53
2019-02-24T15:24:10.269Z,101963.02
2019-02-24T15:26:40.662Z,101956.64
2019-02-24T15:29:10.104Z,101963.45
2019-02-24T15:31:37.628Z,101963.45
2019-02-24T15:34:11.912Z,101964.83
2019-02-24T15:36:39.777Z,101965.39
2019-02-24T15:39:09.202Z,101961.92
2019-02-24T15:41:38.841Z,101963.73
2019-02-24T15:44:06.343Z,101963.23
2019-02-24T15:46:39.978Z,101960.53
2019-02-24T15:49:12.908Z,101954.47
2019-02-24T15:51:42.166Z,101964.78
2019-02-24T15:54:10.637Z,101968.66
2019-02-24T15:56:43.037Z,101971.20
2019-02-24T15:59:12.934Z,101979.78
2019-02-24T16:01:40.527Z,101979.78
2019-02-24T16:04:10.321Z,101983.42
2019-02-24T16:06:37.580Z,101988.25
2019-02-24T16:09:06.709Z,101992.56
2019-02-24T16:11:39.160Z,101999.02
2019-02-24T16:14:09.489Z,101999.02
2019-02-24T16:16:37.021Z,102002.66
2019-02-24T16:19:07.768Z,101998.33
2019-02-24T16:21:35.211Z,101994.45
2019-02-24T16:24:03.474Z,101994.45
2019-02-24T16:26:35.825Z,101992.36
2019-02-24T16:29:03.348Z,101992.83
2019-02-24T16:31:30.869Z,101997.58
2019-02-24T16:34:00.580Z,101999.17
2019-02-24T16:36:36.767Z,102004.42
2019-02-24T16:39:05.010Z,102004.42
2019-02-24T16:41:32.622Z,102005.52
2019-02-24T16:44:00.307Z,102005.06
2019-02-24T16:46:30.932Z,102008.61
2019-02-24T16:48:58.525Z,102005.54
2019-02-24T16:51:26.013Z,102005.54
2019-02-24T16:53:53.883Z,102000.33
2019-02-24T16:56:21.424Z,102007.02
2019-02-24T16:58:49.104Z,102010.73
2019-02-24T17:01:16.670Z,102011.94
2019-02-24T17:03:44.396Z,102015.43
2019-02-24T17:06:12.250Z,102015.43
2019-02-24T17:08:39.814Z,102015.00
2019-02-24T17:11:07.887Z,102022.06
2019-02-24T17:13:35.733Z,102022.84
2019-02-24T17:16:03.366Z,102023.44
2019-02-24T17:18:31.326Z,102019.09
2019-02-24T17:20:59.180Z,102019.09
2019-02-24T17:23:26.653Z,102019.28
2019-02-24T17:25:54.261Z,102019.28
2019-02-24T17:28:22.023Z,102027.37
2019-02-24T17:30:51.936Z,102029.69
2019-02-24T17:33:23.787Z,102029.69
2019-02-24T17:35:49.018Z,102036.91
2019-02-24T17:38:16.560Z,102034.73
2019-02-24T17:40:44.153Z,102046.70
2019-02-24T17:43:12.146Z,102048.00
2019-02-24T17:45:44.860Z,102048.00
2019-02-24T17:48:12.548Z,102054.45
2019-02-24T17:50:40.376Z,102056.59
2019-02-24T17:53:10.458Z,102056.59
2019-02-24T17:55:44.015Z,102062.28
2019-02-24T17:58:12.042Z,102063.64
2019-02-24T18:00:44.746Z,102063.64
2019-02-24T18:03:13.981Z,102058.56
2019-02-24T18:05:45.154Z,102058.56
2019-02-24T18:08:31.543Z,102058.02
2019-02-24T18:11:17.825Z,102060.53
2019-02-24T18:13:45.439Z,102056.13
2019-02-24T18:16:32.498Z,102056.13
2019-02-24T18:19:00.167Z,102060.50
2019-02-24T18:21:46.508Z,102059.11
2019-02-24T18:24:16.314Z,102062.14
2019-02-24T18:27:02.586Z,102060.05
2019-02-24T18:29:30.087Z,102060.05
2019-02-24T18:31:57.620Z,102057.80
2019-02-24T18:34:44.179Z,102057.22
2019-02-24T18:37:11.864Z,102057.22
2019-02-24T18:39:39.491Z,102058.20
2019-02-24T18:42:25.796Z,102057.58
2019-02-24T18:44:56.032Z,102056.11
2019-02-24T18:47:54.598Z,102056.11
2019-02-24T18:50:30.450Z,102057.41
2019-02-24T18:53:16.882Z,102056.38
2019-02-24T18:55:44.505Z,102056.38
2019-02-24T18:59:01.172Z,102055.13
2019-02-24T19:01:00.132Z,102051.80
2019-02-24T19:03:46.538Z,102051.80
2019-02-24T19:06:39.115Z,102048.30
2019-02-24T19:09:21.962Z,102045.58
2019-02-24T19:11:49.528Z,102045.58
2019-02-24T19:14:36.944Z,102045.78
2019-02-24T19:17:06.963Z,102044.22
2019-02-24T19:19:53.339Z,102042.81
2019-02-24T19:22:20.940Z,102042.81
2019-02-24T19:25:07.378Z,102039.55
2019-02-24T19:27:53.736Z,102039.50
2019-02-24T19:30:40.124Z,102045.03
2019-02-24T19:33:26.734Z,102045.38
2019-02-24T19:36:13.087Z,102045.38
2019-02-24T19:38:59.435Z,102042.05
2019-02-24T19:41:46.474Z,102042.05
2019-02-24T19:44:14.118Z,102041.60
2019-02-24T19:46:51.832Z,102041.60
2019-02-24T19:49:21.960Z,102040.13
2019-02-24T19:51:52.844Z,102040.13
2019-02-24T19:54:24.738Z,102033.03
2019-02-24T19:56:55.601Z,102029.98
2019-02-24T19:59:23.231Z,102029.98
2019-02-24T20:01:50.778Z,102039.75
2019-02-24T20:04:18.658Z,102036.14
2019-02-24T20:06:47.842Z,102041.20
2019-02-24T20:09:15.459Z,102044.53
2019-02-24T20:11:44.404Z,102051.80
2019-02-24T20:14:15.830Z,102051.80
2019-02-24T20:16:43.582Z,102058.14
2019-02-24T20:19:11.062Z,102046.61
2019-02-24T20:21:38.602Z,102052.91
2019-02-24T20:24:09.366Z,102060.06
2019-02-24T20:26:36.845Z,102060.06
2019-02-24T20:29:04.307Z,102056.60
2019-02-24T20:31:32.126Z,102055.75
2019-02-24T20:33:59.972Z,102054.02
2019-02-24T20:36:27.500Z,102049.62
2019-02-24T20:38:55.401Z,102049.62
2019-02-24T20:41:30.816Z,102059.78
2019-02-24T20:43:58.089Z,102065.67
2019-02-24T20:46:26.687Z,102065.67
2019-02-24T20:48:54.300Z,102062.47
2019-02-24T20:51:21.833Z,102062.59
2019-02-24T20:54:08.275Z,102066.59
2019-02-24T20:56:37.852Z,102070.65
2019-02-24T20:59:24.206Z,102070.65
2019-02-24T21:02:11.013Z,102072.59
2019-02-24T21:05:14.356Z,102072.59
2019-02-24T21:07:29.421Z,102071.83
2019-02-24T21:10:15.829Z,102076.30
2019-02-24T21:13:14.264Z,102059.66
2019-02-24T21:18:05.627Z,102079.12
2019-02-24T21:20:56.034Z,102079.12
2019-02-24T21:23:21.651Z,102076.04
2019-02-24T21:28:37.339Z,102090.36
2019-02-24T21:31:37.780Z,102090.36
2019-02-24T21:34:14.681Z,102093.09
2019-02-24T21:37:02.386Z,102090.98
2019-02-24T21:39:30.054Z,102097.70
2019-02-24T21:42:16.457Z,102093.88
2019-02-24T21:44:44.004Z,102091.37
2019-02-24T21:47:13.634Z,102086.27
2019-02-24T21:52:33.202Z,102101.97
2019-02-24T21:55:19.638Z,102093.35
2019-02-24T22:00:40.762Z,102084.40
2019-02-24T22:03:08.306Z,102084.40
2019-02-24T22:05:54.677Z,102088.13
2019-02-24T22:08:41.116Z,102091.30
2019-02-24T22:11:27.491Z,102096.25
2019-02-24T22:17:00.351Z,102094.27
2019-02-24T22:19:27.936Z,102094.27
2019-02-24T22:21:55.621Z,102096.20
2019-02-24T22:24:23.799Z,102094.05
2019-02-24T22:27:10.156Z,102091.83
2019-02-24T22:29:56.831Z,102091.31
2019-02-24T22:32:43.164Z,102096.52
2019-02-24T22:35:29.628Z,102089.98
2019-02-24T22:38:16.043Z,102089.98
2019-02-24T22:40:54.021Z,102094.78
2019-02-24T22:43:33.940Z,102093.42
2019-02-24T22:46:20.578Z,102092.25
2019-02-24T22:48:48.160Z,102092.25
2019-02-24T22:51:15.601Z,102101.97
2019-02-24T22:56:50.586Z,102104.50
2019-02-24T22:59:36.911Z,102113.42
2019-02-24T23:02:23.272Z,102114.44
2019-02-24T23:13:05.169Z,102112.52
2019-02-24T23:15:33.153Z,102112.52
2019-02-24T23:18:19.580Z,102119.58
2019-02-24T23:20:47.202Z,102119.58
2019-02-24T23:23:14.771Z,102116.08
2019-02-24T23:26:01.171Z,102128.50
2019-02-24T23:28:28.823Z,102128.50
2019-02-24T23:30:56.385Z,102131.16
2019-02-24T23:33:42.738Z,102138.71
2019-02-24T23:36:29.171Z,102149.17
2019-02-24T23:39:18.772Z,102146.97
2019-02-24T23:41:46.431Z,102146.97
2019-02-24T23:44:13.998Z,102147.94
2019-02-24T23:46:43.693Z,102144.50
2019-02-24T23:49:30.064Z,102145.41
2019-02-24T23:52:16.445Z,102145.99
2019-02-24T23:55:02.795Z,102140.79
2019-02-24T23:57:30.567Z,102140.79
